S/y Emily — OG6901 — position and weather

sailwx.info

Track history (hours):
 
Tides and Currents Weather Stations Pressure Air Temp Water Temp Dewpoint Dewpoint Depression Visibility Wind Speed Wind Dir Waves Ship Positions

S/y Emily

Last reported at 2018-Jun-01 14:14 UTC. Time now 2018-Jun-21 06:54 UTC.
Position N 60°11' E 025°03'.
Warning: this ship's position is 19 days out of date.

Type: Pleasure craft. MMSI: 230062270.

Date/timePositionNaut miles runAvg speedWind from/ knotsBaromVisibWave heightAir tempDewpointWater temp
2018-Jun-01 14:14N 60°11' E 025°03'0 0.0
2018-Jun-01 13:38N 60°11' E 025°03'0 0.0
2018-Jun-01 13:29N 60°11' E 025°03'0 0.0
2018-Jun-01 12:59N 60°11' E 025°03'2 3.1
2018-Jun-01 12:29N 60°10' E 025°00'3 5.2
2018-Jun-01 12:00N 60°08' E 024°57'3 6.4
2018-Jun-01 11:30N 60°06' E 024°52'3 6.0
2018-Jun-01 10:58N 60°05' E 024°46'33 1.5
2018-May-31 12:42N 59°55' E 023°44'1 4.4
2018-May-31 12:30N 59°54' E 023°42'3 5.2
2018-May-31 12:00N 59°53' E 023°38'2 4.5
2018-May-31 11:30N 59°52' E 023°34'2 4.9
2018-May-31 11:00N 59°51' E 023°29'30 0.9
2018-May-30 01:57N 59°37' E 022°36'2 4.3
2018-May-30 01:30N 59°36' E 022°33'3 5.2
2018-May-30 00:59N 59°35' E 022°28'26 5.0
2018-May-29 19:50N 59°22' E 021°44'1 4.1
2018-May-29 19:30N 59°22' E 021°42'2 4.9
2018-May-29 19:00N 59°20' E 021°38'3 5.1
2018-May-29 18:30N 59°19' E 021°33'  
2018-May-26 11:30N 56°18' E 016°07'2 4.5
2018-May-26 10:58N 56°16' E 016°06'2 4.1
2018-May-26 10:30N 56°14' E 016°05'2 4.1
2018-May-26 09:58N 56°12' E 016°04'2 3.8
2018-May-26 09:29N 56°10' E 016°03'2 3.5
2018-May-26 09:00N 56°09' E 016°01'2 4.2
2018-May-26 08:30N 56°07' E 015°59'2 3.9
2018-May-26 08:00N 56°06' E 015°57'2 3.4
2018-May-26 07:30N 56°04' E 015°55'1 2.9
2018-May-26 07:00N 56°03' E 015°53'2 3.4
2018-May-26 06:30N 56°02' E 015°51'3 3.3
2018-May-26 05:30N 55°60' E 015°47'2 3.2
2018-May-26 05:00N 55°59' E 015°44'2 3.2
2018-May-26 04:30N 55°59' E 015°41'2 3.2
2018-May-26 04:00N 55°59' E 015°39'2 3.5
2018-May-26 03:30N 55°58' E 015°36'2 4.4
2018-May-26 03:00N 55°58' E 015°32'2 4.4
2018-May-26 02:30N 55°58' E 015°28'2 4.5
2018-May-26 02:00N 55°57' E 015°24'2 4.3
2018-May-26 01:30N 55°57' E 015°20'2 4.1
2018-May-26 00:59N 55°57' E 015°17'142 2.8
2018-May-23 22:56N 54°23' E 012°10'2 5.0
2018-May-23 22:27N 54°23' E 012°06'2 4.8
2018-May-23 21:57N 54°23' E 012°02'  
Track history (hours):
 
Tides and Currents Weather Stations Pressure Air Temp Water Temp Dewpoint Dewpoint Depression Visibility Wind Speed Wind Dir Waves Ship Positions

S/y Emily

Last reported at 2018-Jun-01 14:14 UTC. Time now 2018-Jun-21 06:54 UTC.
Position N 60°11' E 025°03'.
Warning: this ship's position is 19 days out of date.

Type: Pleasure craft. MMSI: 230062270.

Date/timePositionNaut miles runAvg speedWind from/ knotsBaromVisibWave heightAir tempDewpointWater temp
2018-Jun-01 14:14N 60°11' E 025°03'0 0.0
2018-Jun-01 13:38N 60°11' E 025°03'0 0.0
2018-Jun-01 13:29N 60°11' E 025°03'0 0.0
2018-Jun-01 12:59N 60°11' E 025°03'2 3.1
2018-Jun-01 12:29N 60°10' E 025°00'3 5.2
2018-Jun-01 12:00N 60°08' E 024°57'3 6.4
2018-Jun-01 11:30N 60°06' E 024°52'3 6.0
2018-Jun-01 10:58N 60°05' E 024°46'33 1.5
2018-May-31 12:42N 59°55' E 023°44'1 4.4
2018-May-31 12:30N 59°54' E 023°42'3 5.2
2018-May-31 12:00N 59°53' E 023°38'2 4.5
2018-May-31 11:30N 59°52' E 023°34'2 4.9
2018-May-31 11:00N 59°51' E 023°29'30 0.9
2018-May-30 01:57N 59°37' E 022°36'2 4.3
2018-May-30 01:30N 59°36' E 022°33'3 5.2
2018-May-30 00:59N 59°35' E 022°28'26 5.0
2018-May-29 19:50N 59°22' E 021°44'1 4.1
2018-May-29 19:30N 59°22' E 021°42'2 4.9
2018-May-29 19:00N 59°20' E 021°38'3 5.1
2018-May-29 18:30N 59°19' E 021°33'  
2018-May-26 11:30N 56°18' E 016°07'2 4.5
2018-May-26 10:58N 56°16' E 016°06'2 4.1
2018-May-26 10:30N 56°14' E 016°05'2 4.1
2018-May-26 09:58N 56°12' E 016°04'2 3.8
2018-May-26 09:29N 56°10' E 016°03'2 3.5
2018-May-26 09:00N 56°09' E 016°01'2 4.2
2018-May-26 08:30N 56°07' E 015°59'2 3.9
2018-May-26 08:00N 56°06' E 015°57'2 3.4
2018-May-26 07:30N 56°04' E 015°55'1 2.9
2018-May-26 07:00N 56°03' E 015°53'2 3.4
2018-May-26 06:30N 56°02' E 015°51'3 3.3
2018-May-26 05:30N 55°60' E 015°47'2 3.2
2018-May-26 05:00N 55°59' E 015°44'2 3.2
2018-May-26 04:30N 55°59' E 015°41'2 3.2
2018-May-26 04:00N 55°59' E 015°39'2 3.5
2018-May-26 03:30N 55°58' E 015°36'2 4.4
2018-May-26 03:00N 55°58' E 015°32'2 4.4
2018-May-26 02:30N 55°58' E 015°28'2 4.5
2018-May-26 02:00N 55°57' E 015°24'2 4.3
2018-May-26 01:30N 55°57' E 015°20'2 4.1
2018-May-26 00:59N 55°57' E 015°17'142 2.8
2018-May-23 22:56N 54°23' E 012°10'2 5.0
2018-May-23 22:27N 54°23' E 012°06'2 4.8
2018-May-23 21:57N 54°23' E 012°02'  

Dump ship's entire track history